Time;durP1;ratioP1;P1;durP2;ratioP2;P2;SDS_P1;SDS_P2;PMS_P1;PMS_P2;Temp;Humidity;BMP_temperature;BMP_pressure;BME280_temperature;BME280_humidity;BME280_pressure;Samples;Min_cycle;Max_cycle;Signal;HPM_P1;HPM_P2
2021/10/28 00:14:32;;;;;;;;;;;;;;;13.99;61.16;101509.06;4864706;28;97738;-67
2021/10/28 00:16:58;;;;;;;;;;;;;;;13.97;61.33;101503.88;4847245;28;101038;-61
2021/10/28 00:19:27;;;;;;;;;;;;;;;13.98;61.10;101513.63;4865174;28;98212;-61
2021/10/28 00:21:52;;;;;;;;;;;;;;;13.96;61.37;101506.88;4864688;28;97930;-61
2021/10/28 00:24:18;;;;;;;;;;;;;;;13.95;61.24;101506.06;4875551;28;105379;-68
2021/10/28 00:26:46;;;;;;;;;;;;;;;13.94;61.04;101503.59;4882222;28;119860;-61
2021/10/28 00:29:19;;;;;;;;;;;;;;;13.93;61.21;101496.56;4847903;28;98645;-67
2021/10/28 00:31:46;;;;;;;;;;;;;;;13.92;61.19;101497.63;4866304;28;98083;-63
2021/10/28 00:34:12;;;;;;;;;;;;;;;13.91;61.29;101502.25;4873531;28;98171;-68
2021/10/28 00:36:38;;;;;;;;;;;;;;;13.90;61.17;101495.19;4883280;28;127975;-61
2021/10/28 00:39:05;;;;;;;;;;;;;;;13.89;61.38;101496.25;4883356;28;101866;-61
2021/10/28 00:41:31;;;;;;;;;;;;;;;13.88;61.38;101496.53;4876356;28;98483;-68
2021/10/28 00:43:58;;;;;;;;;;;;;;;13.87;61.31;101497.59;4881074;28;114700;-62
2021/10/28 00:46:27;;;;;;;;;;;;;;;13.86;61.42;101501.41;4881397;28;98688;-68
2021/10/28 00:48:53;;;;;;;;;;;;;;;13.84;61.15;101496.25;4883772;28;98418;-68
2021/10/28 00:51:21;;;;;;;;;;;;;;;13.83;61.20;101493.78;4883122;28;113943;-68
2021/10/28 00:53:47;;;;;;;;;;;;;;;13.82;61.20;101490.25;4870080;28;97823;-67
2021/10/28 00:56:13;;;;;;;;;;;;;;;13.78;61.00;101491.88;4883860;28;98304;-61
2021/10/28 00:58:39;;;;;;;;;;;;;;;13.80;60.94;101499.75;4881860;28;127852;-61
2021/10/28 01:01:06;;;;;;;;;;;;;;;13.78;61.37;101493.78;4883503;28;97856;-67
2021/10/28 01:03:33;;;;;;;;;;;;;;;13.77;61.20;101494.84;4884426;28;98386;-61
2021/10/28 01:05:59;;;;;;;;;;;;;;;13.76;61.38;101496.75;4879401;28;98346;-66
2021/10/28 01:08:25;;;;;;;;;;;;;;;13.73;60.97;101489.97;4882734;28;113393;-61
2021/10/28 01:10:51;;;;;;;;;;;;;;;13.73;60.90;101497.28;4883701;28;99089;-61
2021/10/28 01:13:19;;;;;;;;;;;;;;;13.71;61.30;101485.88;4879826;28;98023;-61
2021/10/28 01:15:45;;;;;;;;;;;;;;;13.70;61.26;101485.06;4847513;28;98635;-61
2021/10/28 01:18:12;;;;;;;;;;;;;;;13.69;60.88;101491.56;4866042;28;98635;-61
2021/10/28 01:20:39;;;;;;;;;;;;;;;13.69;61.00;101483.44;4879605;28;104299;-61
2021/10/28 01:23:06;;;;;;;;;;;;;;;13.67;60.92;101487.47;4883366;28;99239;-68
2021/10/28 01:25:32;;;;;;;;;;;;;;;13.64;61.08;101480.72;4883137;28;111687;-61
2021/10/28 01:27:58;;;;;;;;;;;;;;;13.64;61.18;101494.25;4882805;28;99188;-61
2021/10/28 01:30:24;;;;;;;;;;;;;;;13.62;60.94;101490.16;4883795;28;98251;-61
2021/10/28 01:32:50;;;;;;;;;;;;;;;13.61;61.12;101492.06;4871118;28;97845;-61
2021/10/28 01:35:16;;;;;;;;;;;;;;;13.59;60.76;101490.69;4864146;28;98310;-61
2021/10/28 01:37:44;;;;;;;;;;;;;;;13.60;61.24;101495.06;4864430;28;98141;-69
2021/10/28 01:40:10;;;;;;;;;;;;;;;13.57;60.90;101488.25;4863728;28;98114;-68
2021/10/28 01:42:37;;;;;;;;;;;;;;;13.55;60.80;101490.41;4878226;28;97924;-61
2021/10/28 01:45:03;;;;;;;;;;;;;;;13.55;61.17;101489.59;4869038;28;98208;-68
2021/10/28 01:47:29;;;;;;;;;;;;;;;13.53;60.73;101486.34;4863394;28;116774;-68
2021/10/28 01:49:55;;;;;;;;;;;;;;;13.50;61.28;101487.66;4864714;28;126926;-68
2021/10/28 01:52:21;;;;;;;;;;;;;;;13.49;60.73;101484.16;4863393;28;116206;-68
2021/10/28 01:54:47;;;;;;;;;;;;;;;13.49;60.98;101483.34;4862632;28;128975;-61
2021/10/28 01:57:21;;;;;;;;;;;;;;;13.48;61.16;101484.41;4863662;28;127507;-61
2021/10/28 01:59:48;;;;;;;;;;;;;;;13.46;61.03;101478.44;4869313;28;98079;-61
2021/10/28 02:02:14;;;;;;;;;;;;;;;13.45;60.80;101483.03;4880467;28;98177;-61
2021/10/28 02:04:40;;;;;;;;;;;;;;;13.44;60.77;101477.88;4863657;28;100482;-61
2021/10/28 02:07:06;;;;;;;;;;;;;;;13.42;60.66;101483.56;4865867;28;98419;-61
2021/10/28 02:09:32;;;;;;;;;;;;;;;13.41;61.11;101476.53;4876538;28;98247;-61
2021/10/28 02:11:58;;;;;;;;;;;;;;;13.40;61.12;101480.31;4864140;28;97988;-68
2021/10/28 02:14:26;;;;;;;;;;;;;;;13.39;60.55;101478.66;4862630;28;98186;-61
2021/10/28 02:16:51;;;;;;;;;;;;;;;13.39;60.74;101472.44;4863997;28;98726;-68
2021/10/28 02:19:17;;;;;;;;;;;;;;;13.39;61.09;101475.13;4867069;28;128494;-62
2021/10/28 02:21:43;;;;;;;;;;;;;;;13.38;60.55;101468.09;4881926;28;117625;-67
2021/10/28 02:24:09;;;;;;;;;;;;;;;13.36;60.75;101470.25;4881004;28;128149;-68
2021/10/28 02:26:35;;;;;;;;;;;;;;;13.36;60.73;101462.97;4881202;28;120268;-68
2021/10/28 02:29:03;;;;;;;;;;;;;;;13.35;61.03;101460.50;4882017;28;97888;-68
2021/10/28 02:31:31;;;;;;;;;;;;;;;13.33;60.68;101463.47;4883005;28;97768;-68
2021/10/28 02:33:57;;;;;;;;;;;;;;;13.32;60.98;101461.81;4881508;28;98948;-68
2021/10/28 02:36:23;;;;;;;;;;;;;;;13.32;60.96;101459.09;4882632;28;108503;-61
2021/10/28 02:38:49;;;;;;;;;;;;;;;13.31;60.91;101454.78;4871576;28;98255;-68
2021/10/28 02:41:15;;;;;;;;;;;;;;;13.30;60.83;101449.63;4853899;28;98257;-61
2021/10/28 02:43:41;;;;;;;;;;;;;;;13.29;60.78;101448.81;4846415;28;98688;-68
2021/10/28 02:46:07;;;;;;;;;;;;;;;13.27;60.49;101465.31;4864193;28;99028;-67
2021/10/28 02:48:33;;;;;;;;;;;;;;;13.27;60.67;101453.66;4863370;28;99809;-62
2021/10/28 02:50:59;;;;;;;;;;;;;;;13.27;60.55;101456.38;4880686;28;99903;-61
2021/10/28 02:53:25;;;;;;;;;;;;;;;13.25;60.76;101456.66;4880246;28;113227;-61
2021/10/28 02:55:51;;;;;;;;;;;;;;;13.23;60.48;101461.50;4892433;28;98425;-68
2021/10/28 02:58:17;;;;;;;;;;;;;;;13.22;60.77;101459.84;4881871;28;98509;-68
2021/10/28 03:00:43;;;;;;;;;;;;;;;13.22;60.63;101453.63;4882336;28;97806;-68
2021/10/28 03:03:10;;;;;;;;;;;;;;;13.20;60.47;101458.47;4880759;28;119970;-61
2021/10/28 03:05:36;;;;;;;;;;;;;;;13.19;60.71;101459.53;4874355;28;99691;-68
2021/10/28 03:08:02;;;;;;;;;;;;;;;13.19;60.74;101460.34;4863935;28;99174;-61
2021/10/28 03:10:28;;;;;;;;;;;;;;;13.18;60.50;101460.63;4864426;28;98206;-68
2021/10/28 03:12:55;;;;;;;;;;;;;;;13.15;60.66;101456.53;4863633;28;98994;-61
2021/10/28 03:15:23;;;;;;;;;;;;;;;13.15;60.59;101467.38;4863364;28;98859;-61
2021/10/28 03:26:02;;;;;;;;;;;;;;;13.11;60.35;101458.13;4860997;28;98107;-61
2021/10/28 03:28:28;;;;;;;;;;;;;;;13.10;60.66;101463.81;4845014;28;98406;-61
2021/10/28 03:30:54;;;;;;;;;;;;;;;13.09;60.53;101460.31;4845192;28;117228;-68
2021/10/28 03:33:22;;;;;;;;;;;;;;;13.06;60.40;101454.59;4844861;28;128127;-61
2021/10/28 03:35:49;;;;;;;;;;;;;;;13.07;60.48;101456.22;4860253;28;100152;-61
2021/10/28 03:38:20;;;;;;;;;;;;;;;13.04;60.40;101465.66;4885302;28;97886;-61
2021/10/28 03:41:08;;;;;;;;;;;;;;;13.03;60.40;101461.34;4879584;28;98118;-61
2021/10/28 03:46:33;;;;;;;;;;;;;;;12.99;60.46;101461.03;4880952;28;117340;-61
2021/10/28 03:49:10;;;;;;;;;;;;;;;12.98;60.31;101464.00;4880555;28;98878;-61
2021/10/28 03:55:01;;;;;;;;;;;;;;;12.96;60.37;101466.97;4859185;28;98111;-68
2021/10/28 03:57:48;;;;;;;;;;;;;;;12.94;60.16;101463.72;4864831;28;99767;-61
2021/10/28 04:03:21;;;;;;;;;;;;;;;12.92;60.09;101457.72;4880957;28;97987;-61
2021/10/28 04:16:30;;;;;;;;;;;;;;;12.87;60.20;101462.28;4843171;28;97934;-61
2021/10/28 04:17:38;;;;;;;;;;;;;;;12.85;59.98;101459.03;4876069;28;99296;-61
2021/10/28 04:30:03;;;;;;;;;;;;;;;12.76;59.86;101455.97;4864816;28;98240;-61
2021/10/28 04:32:29;;;;;;;;;;;;;;;12.74;59.73;101447.31;4882131;28;97941;-61
2021/10/28 04:34:55;;;;;;;;;;;;;;;12.72;59.97;101444.84;4881071;28;104022;-68
2021/10/28 04:37:21;;;;;;;;;;;;;;;12.72;59.98;101444.84;4876101;28;129103;-67
2021/10/28 04:39:47;;;;;;;;;;;;;;;12.71;59.70;101447.81;4893042;28;103854;-68
2021/10/28 04:42:13;;;;;;;;;;;;;;;12.70;59.67;101446.19;4899066;28;98756;-68
2021/10/28 04:44:40;;;;;;;;;;;;;;;12.68;59.40;101441.03;4889896;28;99743;-68
2021/10/28 04:47:06;;;;;;;;;;;;;;;12.68;59.74;101442.94;4900922;28;97978;-68
2021/10/28 04:49:32;;;;;;;;;;;;;;;12.66;59.60;101447.78;4878492;28;109797;-68
2021/10/28 04:51:58;;;;;;;;;;;;;;;12.64;59.71;101447.22;4883233;28;107665;-68
2021/10/28 04:54:25;;;;;;;;;;;;;;;12.62;59.63;101444.78;4877962;28;111247;-68
2021/10/28 04:56:51;;;;;;;;;;;;;;;12.61;59.52;101443.13;4865815;28;99259;-68
2021/10/28 04:59:17;;;;;;;;;;;;;;;12.60;59.74;101451.50;4869890;28;98741;-68
2021/10/28 05:01:43;;;;;;;;;;;;;;;12.58;59.51;101446.38;4883810;28;98112;-68
2021/10/28 05:04:09;;;;;;;;;;;;;;;12.58;59.49;101450.97;4882321;28;97981;-68
2021/10/28 05:06:35;;;;;;;;;;;;;;;12.55;59.38;101449.59;4884042;28;98531;-68
2021/10/28 05:09:03;;;;;;;;;;;;;;;12.55;59.52;101454.19;4881856;28;98668;-68
2021/10/28 05:11:29;;;;;;;;;;;;;;;12.53;59.53;101446.31;4883587;28;98020;-68
2021/10/28 05:13:55;;;;;;;;;;;;;;;12.51;59.43;101446.56;4878052;28;108304;-67
2021/10/28 05:16:21;;;;;;;;;;;;;;;12.50;59.42;101444.13;4872655;28;128154;-68
2021/10/28 05:18:47;;;;;;;;;;;;;;;12.48;59.38;101454.38;4877566;28;98499;-68
2021/10/28 05:21:14;;;;;;;;;;;;;;;12.46;59.23;101445.72;4865082;28;98182;-68
2021/10/28 05:23:40;;;;;;;;;;;;;;;12.44;59.26;101447.84;4863707;28;97786;-68
2021/10/28 05:26:07;;;;;;;;;;;;;;;12.42;59.14;101442.72;4861478;28;111452;-68
2021/10/28 05:28:33;;;;;;;;;;;;;;;12.42;59.12;101447.31;4862255;28;98513;-68
2021/10/28 05:30:59;;;;;;;;;;;;;;;12.40;59.12;101441.31;4863141;28;97999;-67
2021/10/28 05:33:25;;;;;;;;;;;;;;;12.39;59.07;101445.91;4863916;28;98313;-68
2021/10/28 05:35:51;;;;;;;;;;;;;;;12.37;58.96;101439.13;4879521;28;126639;-68
2021/10/28 05:38:17;;;;;;;;;;;;;;;12.37;59.07;101442.63;4879379;28;98489;-68
2021/10/28 05:40:43;;;;;;;;;;;;;;;12.36;58.96;101449.13;4845903;28;109530;-68
2021/10/28 05:43:09;;;;;;;;;;;;;;;12.36;58.74;101445.59;4846557;28;97840;-68
2021/10/28 05:45:36;;;;;;;;;;;;;;;12.34;58.88;101442.34;4863765;28;99045;-68
2021/10/28 05:48:02;;;;;;;;;;;;;;;12.32;59.07;101450.72;4862939;28;98651;-68
2021/10/28 05:50:29;;;;;;;;;;;;;;;12.33;59.09;101443.41;4856423;28;98148;-68
2021/10/28 05:52:57;;;;;;;;;;;;;;;12.32;58.78;101436.38;4863492;28;97756;-68
2021/10/28 05:55:23;;;;;;;;;;;;;;;12.31;58.77;101432.88;4863918;28;97849;-68
2021/10/28 05:57:49;;;;;;;;;;;;;;;12.31;58.82;101448.28;4879173;28;97948;-68
2021/10/28 06:00:15;;;;;;;;;;;;;;;12.30;58.87;101439.34;4881415;28;98590;-61
2021/10/28 06:02:42;;;;;;;;;;;;;;;12.29;58.75;101435.81;4883532;28;98122;-61
2021/10/28 06:05:08;;;;;;;;;;;;;;;12.29;58.65;101443.91;4883155;28;97848;-68
2021/10/28 06:07:34;;;;;;;;;;;;;;;12.31;58.66;101437.47;4881857;28;117087;-68
2021/10/28 06:10:00;;;;;;;;;;;;;;;12.31;58.64;101435.56;4880220;28;126924;-68
2021/10/28 06:12:29;;;;;;;;;;;;;;;12.32;58.45;101431.78;4859185;28;97886;-68
2021/10/28 06:14:56;;;;;;;;;;;;;;;12.33;58.44;101440.72;4882805;28;98312;-68
2021/10/28 06:17:30;;;;;;;;;;;;;;;12.33;58.38;101441.50;4883013;28;98735;-61
2021/10/28 06:19:56;;;;;;;;;;;;;;;12.35;58.53;101443.97;4876370;28;101974;-67
2021/10/28 06:22:22;;;;;;;;;;;;;;;12.39;58.25;101442.41;4872721;28;109196;-61
2021/10/28 06:24:48;;;;;;;;;;;;;;;12.41;58.15;101442.94;4861968;28;98455;-68
2021/10/28 06:27:14;;;;;;;;;;;;;;;12.44;58.26;101453.25;4880400;28;127338;-68
2021/10/28 06:29:40;;;;;;;;;;;;;;;12.45;58.12;101444.88;4855659;28;98886;-68
2021/10/28 06:32:06;;;;;;;;;;;;;;;12.49;58.08;101446.00;4882617;28;115899;-68
2021/10/28 06:34:39;;;;;;;;;;;;;;;12.53;58.02;101446.31;4882208;28;99139;-68
2021/10/28 06:37:06;;;;;;;;;;;;;;;12.57;57.98;101439.31;4882627;28;98979;-68
2021/10/28 06:39:32;;;;;;;;;;;;;;;12.61;57.95;101436.91;4874068;28;98532;-61
2021/10/28 06:41:58;;;;;;;;;;;;;;;12.64;57.69;101441.81;4878244;28;104016;-68
2021/10/28 06:44:24;;;;;;;;;;;;;;;12.67;57.66;101442.13;4861973;28;129188;-61
2021/10/28 06:46:51;;;;;;;;;;;;;;;12.71;57.91;101447.81;4863883;28;99464;-68
2021/10/28 06:49:17;;;;;;;;;;;;;;;12.73;57.78;101449.22;4865712;28;98018;-68
2021/10/28 06:51:43;;;;;;;;;;;;;;;12.76;57.38;101451.38;4866097;28;98312;-61
2021/10/28 07:04:33;;;;;;;;;;;;;;;12.92;57.56;101448.78;4847089;28;97937;-61
2021/10/28 07:06:59;;;;;;;;;;;;;;;12.99;57.44;101442.09;4843725;28;128101;-61
2021/10/28 07:09:33;;;;;;;;;;;;;;;13.05;57.18;101437.53;4874825;28;98749;-61
2021/10/28 07:12:25;;;;;;;;;;;;;;;13.09;57.06;101437.84;4883283;28;98005;-61
2021/10/28 07:14:52;;;;;;;;;;;;;;;13.13;57.21;101439.75;4853485;28;98899;-61
2021/10/28 07:25:16;;;;;;;;;;;;;;;13.38;57.13;101444.53;4865345;28;98267;-61
2021/10/28 07:30:22;;;;;;;;;;;;;;;13.57;57.03;101444.09;4866957;28;97927;-61
2021/10/28 07:33:14;;;;;;;;;;;;;;;13.72;56.83;101444.97;4867829;28;97847;-61
2021/10/28 07:36:14;;;;;;;;;;;;;;;14.06;56.16;101436.41;4866750;28;98510;-61
2021/10/28 08:13:35;;;;;;;;;;;;;;;20.95;48.12;101401.22;4873150;28;97934;-68
2021/10/28 08:29:40;;;;;;;;;;;;;;;30.31;38.17;101416.00;4871687;28;97977;-63
2021/10/28 08:32:06;;;;;;;;;;;;;;;31.32;36.99;101398.31;4884805;28;99394;-69
2021/10/28 08:34:35;;;;;;;;;;;;;;;32.34;36.55;101391.66;4884035;28;103813;-63
2021/10/28 08:37:14;;;;;;;;;;;;;;;33.40;35.70;101395.72;4881540;28;98002;-70
2021/10/28 08:39:48;;;;;;;;;;;;;;;34.14;34.78;101390.34;4865245;28;99471;-63
2021/10/28 08:42:15;;;;;;;;;;;;;;;34.14;35.32;101385.56;4865431;28;98205;-70
2021/10/28 08:44:49;;;;;;;;;;;;;;;33.65;36.80;101383.75;4848358;28;98061;-69
2021/10/28 08:47:16;;;;;;;;;;;;;;;33.22;37.41;101369.84;4865539;28;97952;-63
2021/10/28 08:50:27;;;;;;;;;;;;;;;33.12;38.33;101359.47;4865175;28;98759;-69
2021/10/28 08:55:05;;;;;;;;;;;;;;;32.83;38.75;101351.09;4864483;28;116811;-70
2021/10/28 09:25:24;;;;;;;;;;;;;;;33.22;39.09;101302.84;4868767;28;98329;-64
2021/10/28 09:28:14;;;;;;;;;;;;;;;33.42;39.18;101303.97;4865403;28;97858;-63
2021/10/28 09:30:57;;;;;;;;;;;;;;;33.69;38.93;101309.88;4864834;28;97755;-70
2021/10/28 09:33:38;;;;;;;;;;;;;;;33.96;38.00;101295.38;4865930;28;98497;-64
2021/10/28 09:45:58;;;;;;;;;;;;;;;35.78;35.37;101292.94;4856363;28;98275;-70
2021/10/28 09:51:00;;;;;;;;;;;;;;;35.03;36.50;101288.19;4866875;28;98080;-70
2021/10/28 09:53:44;;;;;;;;;;;;;;;34.19;37.27;101270.50;4874690;28;97973;-70
2021/10/28 09:59:03;;;;;;;;;;;;;;;32.71;38.87;101265.00;4876134;28;97866;-70
2021/10/28 10:01:34;;;;;;;;;;;;;;;32.19;38.97;101270.16;4871444;28;98096;-70
2021/10/28 10:04:01;;;;;;;;;;;;;;;31.82;39.47;101262.88;4883169;28;99641;-70
2021/10/28 10:06:27;;;;;;;;;;;;;;;31.70;39.40;101261.25;4875128;28;98395;-70
2021/10/28 10:08:54;;;;;;;;;;;;;;;31.94;38.77;101264.53;4881179;28;98300;-70
2021/10/28 10:11:25;;;;;;;;;;;;;;;32.69;37.16;101264.59;4865788;28;116552;-70
2021/10/28 10:13:51;;;;;;;;;;;;;;;33.87;35.91;101258.66;4883270;28;97816;-70
2021/10/28 10:16:17;;;;;;;;;;;;;;;34.97;34.09;101265.41;4883990;28;97832;-70
2021/10/28 10:18:47;;;;;;;;;;;;;;;36.01;32.87;101267.00;4875456;28;127330;-70
2021/10/28 10:21:28;;;;;;;;;;;;;;;36.68;32.26;101261.50;4881247;28;98435;-70
2021/10/28 10:24:07;;;;;;;;;;;;;;;37.03;31.65;101260.88;4877723;28;98089;-70
2021/10/28 10:27:08;;;;;;;;;;;;;;;37.24;31.21;101254.03;4869066;28;97977;-70
2021/10/28 12:01:34;;;;;;;;;;;;;;;26.35;39.49;101165.59;4863692;28;98644;-62
2021/10/28 12:15:45;;;;;;;;;;;;;;;22.84;43.29;101125.38;4867786;28;97951;-69
2021/10/28 12:19:50;;;;;;;;;;;;;;;22.67;43.43;101127.09;4881376;28;98011;-69
2021/10/28 12:50:59;;;;;;;;;;;;;;;21.37;44.96;101099.31;4863301;28;97714;-64
2021/10/28 12:56:11;;;;;;;;;;;;;;;21.28;45.07;101089.16;4873873;28;120223;-69
2021/10/28 13:04:18;;;;;;;;;;;;;;;21.17;45.18;101078.84;4879428;28;98136;-69
2021/10/28 13:07:03;;;;;;;;;;;;;;;21.18;45.27;101080.44;4883110;28;98070;-68
2021/10/28 13:51:10;;;;;;;;;;;;;;;21.07;46.17;101067.09;4863273;28;98446;-69
2021/10/28 14:31:46;;;;;;;;;;;;;;;19.90;47.44;101035.00;4879488;28;98249;-61
2021/10/28 14:39:17;;;;;;;;;;;;;;;19.73;47.63;101029.44;4866868;28;97911;-61
2021/10/28 15:28:20;;;;;;;;;;;;;;;18.39;50.35;101007.25;4893510;28;98034;-68
2021/10/28 15:31:14;;;;;;;;;;;;;;;18.33;50.80;101008.47;4900290;28;98734;-61
2021/10/28 15:36:14;;;;;;;;;;;;;;;18.20;50.96;101009.31;4891193;28;98535;-68
2021/10/28 15:50:34;;;;;;;;;;;;;;;17.85;51.73;101005.41;4897617;28;98532;-61
2021/10/28 15:56:01;;;;;;;;;;;;;;;17.71;51.94;100993.63;4901166;28;97962;-69
2021/10/28 16:22:24;;;;;;;;;;;;;;;17.06;53.17;100980.94;4867560;28;98916;-69
2021/10/28 16:24:50;;;;;;;;;;;;;;;17.01;53.10;100979.06;4893082;28;98347;-69
2021/10/28 16:27:16;;;;;;;;;;;;;;;16.98;53.27;100976.97;4898207;28;111559;-62
2021/10/28 16:29:42;;;;;;;;;;;;;;;16.94;53.35;100975.94;4885400;28;98533;-69
2021/10/28 16:32:08;;;;;;;;;;;;;;;16.90;53.65;100970.28;4868537;28;100399;-61
2021/10/28 16:34:34;;;;;;;;;;;;;;;16.86;53.61;100969.28;4891484;28;127642;-69
2021/10/28 16:37:00;;;;;;;;;;;;;;;16.84;53.42;100968.75;4892214;28;98206;-61
2021/10/28 16:39:26;;;;;;;;;;;;;;;16.81;53.34;100960.34;4894475;28;98262;-68
2021/10/28 16:41:54;;;;;;;;;;;;;;;16.77;53.67;100956.63;4892974;28;98653;-62
2021/10/28 16:44:20;;;;;;;;;;;;;;;16.74;53.54;100958.03;4894716;28;98677;-61
2021/10/28 16:46:47;;;;;;;;;;;;;;;16.71;53.86;100957.78;4899858;28;98382;-61
2021/10/28 16:49:13;;;;;;;;;;;;;;;16.67;53.82;100954.84;4894462;28;99426;-61
2021/10/28 16:51:39;;;;;;;;;;;;;;;16.63;54.08;100954.63;4901285;28;98626;-69
2021/10/28 16:54:05;;;;;;;;;;;;;;;16.60;54.01;100948.97;4892569;28;107412;-68
2021/10/28 16:56:31;;;;;;;;;;;;;;;16.56;54.14;100953.38;4890232;28;117380;-68
2021/10/28 16:58:57;;;;;;;;;;;;;;;16.53;54.02;100951.25;4887313;28;98895;-62
2021/10/28 17:01:24;;;;;;;;;;;;;;;16.50;54.03;100955.34;4886785;28;128675;-61
2021/10/28 17:03:50;;;;;;;;;;;;;;;16.47;54.26;100955.97;4894960;28;98219;-68
2021/10/28 17:06:17;;;;;;;;;;;;;;;16.44;54.35;100956.56;4896177;28;100947;-61
2021/10/28 17:08:45;;;;;;;;;;;;;;;16.41;54.42;100962.56;4893940;28;98665;-61
2021/10/28 17:11:12;;;;;;;;;;;;;;;16.36;54.54;100960.75;4895138;28;128390;-68
2021/10/28 17:13:38;;;;;;;;;;;;;;;16.34;54.63;100952.06;4896170;28;98168;-68
2021/10/28 17:16:05;;;;;;;;;;;;;;;16.31;54.31;100951.81;4885922;28;98066;-68
2021/10/28 17:18:30;;;;;;;;;;;;;;;16.28;54.63;100955.16;4881844;28;123295;-69
2021/10/28 17:20:59;;;;;;;;;;;;;;;16.25;54.61;100955.72;4858037;28;120657;-68
2021/10/28 17:23:33;;;;;;;;;;;;;;;16.21;54.61;100955.50;4883333;28;97974;-62
2021/10/28 17:26:03;;;;;;;;;;;;;;;16.17;54.51;100958.00;4884759;28;98168;-61
2021/10/28 17:28:29;;;;;;;;;;;;;;;16.14;54.72;100957.78;4892624;28;99392;-68
2021/10/28 17:30:55;;;;;;;;;;;;;;;16.11;54.68;100964.63;4897116;28;115320;-68
2021/10/28 17:33:21;;;;;;;;;;;;;;;16.08;54.88;100957.06;4896391;28;103019;-68
2021/10/28 17:35:47;;;;;;;;;;;;;;;16.05;54.75;100964.97;4889047;28;113170;-69
2021/10/28 17:38:14;;;;;;;;;;;;;;;16.00;54.94;100957.69;4898064;28;119530;-68
2021/10/28 17:40:40;;;;;;;;;;;;;;;15.98;54.88;100959.88;4892226;28;127823;-61
2021/10/28 17:43:10;;;;;;;;;;;;;;;15.94;54.96;100950.69;4892297;28;125687;-61
2021/10/28 17:45:37;;;;;;;;;;;;;;;15.90;55.02;100955.09;4899751;28;97814;-61
2021/10/28 17:48:03;;;;;;;;;;;;;;;15.86;54.92;100951.34;4891382;28;99107;-61
2021/10/28 17:50:29;;;;;;;;;;;;;;;15.83;55.08;100954.63;4892762;28;98929;-61
2021/10/28 17:52:55;;;;;;;;;;;;;;;15.80;54.85;100949.78;4893464;28;127107;-68
2021/10/28 17:55:21;;;;;;;;;;;;;;;15.76;54.91;100957.72;4894941;28;118726;-61
2021/10/28 17:57:49;;;;;;;;;;;;;;;15.74;55.14;100959.91;4889576;28;98383;-61
2021/10/28 18:00:16;;;;;;;;;;;;;;;15.68;54.98;100955.66;4894221;28;98212;-68
2021/10/28 18:02:42;;;;;;;;;;;;;;;15.65;55.15;100959.75;4898567;28;97954;-61
2021/10/28 18:05:09;;;;;;;;;;;;;;;15.62;55.11;100957.56;4899891;28;98006;-61
2021/10/28 18:07:34;;;;;;;;;;;;;;;15.58;55.55;100961.97;4894051;28;99218;-62
2021/10/28 18:10:00;;;;;;;;;;;;;;;15.55;55.15;100959.00;4897686;28;123889;-61
2021/10/28 18:12:27;;;;;;;;;;;;;;;15.51;55.32;100956.06;4893294;28;123300;-61
2021/10/28 18:14:53;;;;;;;;;;;;;;;15.49;55.22;100952.84;4894418;28;98360;-61
2021/10/28 18:17:19;;;;;;;;;;;;;;;15.45;55.33;100955.31;4888928;28;99497;-61
2021/10/28 18:19:46;;;;;;;;;;;;;;;15.41;55.58;100950.75;4884009;28;128132;-69
2021/10/28 18:22:13;;;;;;;;;;;;;;;15.39;55.40;100950.22;4882039;28;102202;-61
2021/10/28 18:24:38;;;;;;;;;;;;;;;15.36;55.74;100948.06;4870688;28;97999;-68
2021/10/28 18:27:06;;;;;;;;;;;;;;;15.32;55.46;100953.25;4891013;28;107674;-68
2021/10/28 18:29:32;;;;;;;;;;;;;;;15.29;55.59;100943.00;4881424;28;99003;-68
2021/10/28 18:31:58;;;;;;;;;;;;;;;15.25;55.36;100947.38;4870938;28;115394;-61
2021/10/28 18:34:24;;;;;;;;;;;;;;;15.23;55.45;100955.00;4896142;28;99514;-61
2021/10/28 18:36:50;;;;;;;;;;;;;;;15.20;55.51;100950.13;4897054;28;127037;-61
2021/10/28 18:39:16;;;;;;;;;;;;;;;15.18;55.52;100949.63;4892325;28;98284;-61
2021/10/28 18:41:43;;;;;;;;;;;;;;;15.14;55.64;100945.84;4887948;28;98110;-68
2021/10/28 18:44:09;;;;;;;;;;;;;;;15.11;55.76;100949.13;4891442;28;98083;-68
2021/10/28 18:46:35;;;;;;;;;;;;;;;15.07;55.68;100946.19;4896136;28;98878;-62
2021/10/28 18:49:03;;;;;;;;;;;;;;;15.05;55.49;100940.25;4896740;28;99424;-69
2021/10/28 18:51:29;;;;;;;;;;;;;;;15.02;55.98;100940.00;4892192;28;98366;-68
2021/10/28 18:53:55;;;;;;;;;;;;;;;14.98;55.75;100937.03;4892524;28;98059;-62
2021/10/28 18:56:24;;;;;;;;;;;;;;;14.95;55.60;100941.13;4897245;28;117355;-68
2021/10/28 18:58:50;;;;;;;;;;;;;;;14.94;55.80;100936.00;4892362;28;98759;-69
2021/10/28 19:01:16;;;;;;;;;;;;;;;14.92;56.03;100946.31;4892072;28;99030;-61
2021/10/28 19:03:44;;;;;;;;;;;;;;;14.89;55.77;100936.81;4898349;28;97970;-62
2021/10/28 19:06:10;;;;;;;;;;;;;;;14.87;55.70;100941.75;4896743;28;98616;-68
2021/10/28 19:08:40;;;;;;;;;;;;;;;14.85;55.99;100935.78;4875125;28;97918;-69
2021/10/28 19:11:07;;;;;;;;;;;;;;;14.85;55.88;100929.53;4867363;28;98030;-69
2021/10/28 19:13:34;;;;;;;;;;;;;;;14.83;55.73;100935.28;4869437;28;97968;-68
2021/10/28 19:16:00;;;;;;;;;;;;;;;14.82;56.18;100930.94;4848321;28;98132;-61
2021/10/28 19:18:26;;;;;;;;;;;;;;;14.79;55.78;100922.56;4865689;28;99165;-64
2021/10/28 19:20:52;;;;;;;;;;;;;;;14.78;55.81;100918.22;4847846;28;125600;-68
2021/10/28 19:23:17;;;;;;;;;;;;;;;14.76;56.16;100917.69;4848754;28;98261;-61
2021/10/28 19:25:44;;;;;;;;;;;;;;;14.75;56.14;100924.22;4877118;28;98321;-61
2021/10/28 19:28:09;;;;;;;;;;;;;;;14.73;56.13;100921.78;4897372;28;100222;-61
2021/10/28 19:30:41;;;;;;;;;;;;;;;14.71;56.02;100923.97;4883999;28;127183;-61
2021/10/28 19:33:55;;;;;;;;;;;;;;;14.69;56.39;100924.25;4885602;28;97966;-61
2021/10/28 19:35:58;;;;;;;;;;;;;;;14.68;56.43;100929.97;4876898;28;99113;-61
2021/10/28 19:41:33;;;;;;;;;;;;;;;14.64;56.36;100921.56;4870069;28;97786;-69
2021/10/28 19:46:43;;;;;;;;;;;;;;;14.63;56.19;100916.44;4863115;28;97893;-61
2021/10/28 19:49:09;;;;;;;;;;;;;;;14.60;56.35;100915.09;4850206;28;115356;-61
2021/10/28 19:51:35;;;;;;;;;;;;;;;14.60;56.44;100920.53;4883392;28;127336;-61
2021/10/28 19:54:03;;;;;;;;;;;;;;;14.59;56.42;100904.53;4883163;28;114005;-61
2021/10/28 19:56:29;;;;;;;;;;;;;;;14.60;56.35;100909.66;4884811;28;98499;-69
2021/10/28 19:58:59;;;;;;;;;;;;;;;14.59;56.13;100902.63;4884281;28;99510;-61
2021/10/28 20:22:27;;;;;;;;;;;;;;;14.58;56.23;100902.91;4864022;28;97679;-69
2021/10/28 20:24:53;;;;;;;;;;;;;;;14.56;56.36;100908.63;4878860;28;117707;-61
2021/10/28 20:27:19;;;;;;;;;;;;;;;14.56;56.48;100900.47;4876061;28;108727;-68
2021/10/28 20:29:45;;;;;;;;;;;;;;;14.56;56.44;100899.66;4865766;28;98429;-61
2021/10/28 20:32:10;;;;;;;;;;;;;;;14.55;56.53;100900.78;4864787;28;98409;-68
2021/10/28 20:34:49;;;;;;;;;;;;;;;14.55;56.61;100903.50;4864009;28;117585;-68
2021/10/28 20:37:15;;;;;;;;;;;;;;;14.54;56.25;100907.28;4867622;28;98547;-68
2021/10/28 20:39:43;;;;;;;;;;;;;;;14.53;56.31;100903.75;4884862;28;99077;-68
2021/10/28 20:42:10;;;;;;;;;;;;;;;14.52;56.64;100909.47;4883655;28;98163;-61
2021/10/28 20:44:36;;;;;;;;;;;;;;;14.51;56.70;100905.16;4884561;28;97862;-68
2021/10/28 20:47:02;;;;;;;;;;;;;;;14.47;56.81;100900.25;4883706;28;108088;-68
2021/10/28 20:49:28;;;;;;;;;;;;;;;14.46;56.53;100904.06;4877548;28;111146;-68
2021/10/28 20:51:54;;;;;;;;;;;;;;;14.46;56.41;100903.22;4864401;28;127503;-61
2021/10/28 20:54:21;;;;;;;;;;;;;;;14.43;56.51;100898.38;4847679;28;97916;-68
2021/10/28 20:56:48;;;;;;;;;;;;;;;14.41;56.69;100898.66;4865012;28;98610;-61
2021/10/28 20:59:15;;;;;;;;;;;;;;;14.40;56.56;100899.75;4868574;28;112238;-69
2021/10/28 21:01:41;;;;;;;;;;;;;;;14.38;56.79;100882.97;4884451;28;98365;-61
2021/10/28 21:04:07;;;;;;;;;;;;;;;14.37;56.83;100896.78;4882260;28;115587;-68